Time;durP1;ratioP1;P1;durP2;ratioP2;P2;SDS_P1;SDS_P2;PMS_P1;PMS_P2;Temp;Humidity;BMP_temperature;BMP_pressure;BME280_temperature;BME280_humidity;BME280_pressure;Samples;Min_cycle;Max_cycle;Signal;HPM_P1;HPM_P2
2023/08/19 00:02:19;;;;;;;16.38;14.77;;;;;;;21.08;100.00;101394.25;4989614;28;20053;-76
2023/08/19 00:04:46;;;;;;;16.63;15.10;;;;;;;21.07;100.00;101396.06;4983389;28;20061;-78
2023/08/19 00:07:15;;;;;;;20.38;14.77;;;;;;;21.07;100.00;101393.41;5003751;28;20080;-77
2023/08/19 00:09:42;;;;;;;16.90;14.45;;;;;;;21.06;100.00;101388.97;4999619;28;20062;-76
2023/08/19 00:12:10;;;;;;;17.90;14.98;;;;;;;21.08;100.00;101389.81;4955188;28;20057;-76
2023/08/19 00:14:37;;;;;;;16.60;15.00;;;;;;;21.08;100.00;101384.44;4954810;28;20050;-76
2023/08/19 00:17:05;;;;;;;14.77;13.38;;;;;;;21.08;100.00;101389.81;4967149;28;20127;-76
2023/08/19 00:19:32;;;;;;;17.13;14.23;;;;;;;21.07;100.00;101382.69;4965864;28;20424;-76
2023/08/19 00:21:59;;;;;;;16.52;14.05;;;;;;;21.06;100.00;101367.53;4963994;28;20050;-76
2023/08/19 00:24:27;;;;;;;14.50;13.18;;;;;;;21.06;100.00;101372.91;4950551;28;20047;-75
2023/08/19 00:26:57;;;;;;;15.85;13.55;;;;;;;21.06;100.00;101369.31;4965620;28;20054;-75
2023/08/19 00:29:24;;;;;;;14.55;13.05;;;;;;;21.04;100.00;101366.72;4941006;28;20055;-76
2023/08/19 00:31:57;;;;;;;16.30;14.80;;;;;;;21.05;100.00;101367.59;4979285;28;20066;-76
2023/08/19 00:34:38;;;;;;;16.08;14.30;;;;;;;21.07;100.00;101363.06;4981129;28;20051;-76
2023/08/19 00:37:07;;;;;;;16.02;14.20;;;;;;;21.06;100.00;101367.53;4994437;28;20039;-77
2023/08/19 00:39:34;;;;;;;16.27;14.40;;;;;;;21.06;100.00;101359.50;4967550;28;20393;-77
2023/08/19 00:42:04;;;;;;;16.23;14.38;;;;;;;21.05;100.00;101359.56;4995572;28;20073;-77
2023/08/19 00:44:33;;;;;;;16.45;14.85;;;;;;;21.04;100.00;101353.31;4911697;28;20053;-76
2023/08/19 00:47:02;;;;;;;17.05;15.25;;;;;;;21.03;100.00;101347.06;4946160;28;20050;-77
2023/08/19 00:49:30;;;;;;;16.75;14.90;;;;;;;21.05;100.00;101348.84;4951374;28;20057;-77
2023/08/19 00:51:58;;;;;;;16.70;14.98;;;;;;;21.00;100.00;101341.81;4965666;28;20035;-76
2023/08/19 00:54:26;;;;;;;17.65;15.35;;;;;;;20.99;100.00;101339.19;4966011;28;20071;-76
2023/08/19 00:56:54;;;;;;;17.35;15.13;;;;;;;20.98;100.00;101346.38;4964804;28;20503;-77
2023/08/19 00:59:22;;;;;;;17.33;15.30;;;;;;;20.98;100.00;101342.78;4949116;28;20047;-76
2023/08/19 01:01:49;;;;;;;17.48;14.85;;;;;;;20.97;100.00;101344.59;4938182;28;20058;-77
2023/08/19 01:04:17;;;;;;;16.92;15.23;;;;;;;20.96;100.00;101344.63;4969040;28;20062;-76
2023/08/19 01:06:54;;;;;;;19.20;14.90;;;;;;;20.94;100.00;101344.69;4970073;28;20409;-76
2023/08/19 01:09:28;;;;;;;18.20;14.88;;;;;;;20.93;100.00;101340.25;4969948;28;20042;-76
2023/08/19 01:11:55;;;;;;;16.75;15.00;;;;;;;20.93;100.00;101342.06;4968741;28;20055;-77
2023/08/19 01:14:35;;;;;;;16.90;14.85;;;;;;;20.92;100.00;101340.31;4971224;28;20050;-77
2023/08/19 01:17:05;;;;;;;17.92;16.05;;;;;;;20.89;100.00;101343.06;4927769;28;20680;-77
2023/08/19 01:19:33;;;;;;;18.63;16.65;;;;;;;20.87;100.00;101342.25;4971414;28;20050;-76
2023/08/19 01:22:05;;;;;;;18.63;16.05;;;;;;;20.84;100.00;101340.56;4969190;28;20496;-76
2023/08/19 01:24:40;;;;;;;17.55;15.60;;;;;;;20.84;100.00;101340.56;4971606;28;20049;-76
2023/08/19 01:27:22;;;;;;;18.65;16.30;;;;;;;20.83;100.00;101333.44;4968392;28;20406;-77
2023/08/19 01:29:50;;;;;;;17.25;15.45;;;;;;;20.82;100.00;101339.72;4963444;28;20051;-76
2023/08/19 01:32:22;;;;;;;19.45;17.33;;;;;;;20.79;100.00;101338.03;4979311;28;20802;-77
2023/08/19 01:34:50;;;;;;;16.58;14.88;;;;;;;20.78;100.00;101340.75;4985322;28;20062;-77
2023/08/19 01:37:29;;;;;;;20.95;16.88;;;;;;;20.77;100.00;101341.66;4984629;28;20039;-77
2023/08/19 01:39:59;;;;;;;17.50;15.52;;;;;;;20.74;100.00;101339.09;4968158;28;20043;-77
2023/08/19 01:42:27;;;;;;;19.38;16.83;;;;;;;20.71;100.00;101348.09;4970192;28;20054;-76
2023/08/19 01:44:55;;;;;;;20.67;18.20;;;;;;;20.70;100.00;101337.44;4941920;28;20050;-77
2023/08/19 01:47:24;;;;;;;18.60;16.70;;;;;;;20.69;100.00;101346.41;4971822;28;20497;-76
2023/08/19 01:49:51;;;;;;;20.48;17.38;;;;;;;20.67;100.00;101343.75;4970128;28;20051;-77
2023/08/19 01:52:19;;;;;;;17.95;16.15;;;;;;;20.66;100.00;101341.13;4968323;28;20135;-76
2023/08/19 01:54:48;;;;;;;19.15;17.38;;;;;;;20.65;100.00;101345.63;4985381;28;20051;-77
2023/08/19 01:57:15;;;;;;;21.35;18.10;;;;;;;20.63;100.00;101342.09;4967454;28;20057;-76
2023/08/19 01:59:43;;;;;;;19.65;17.55;;;;;;;20.60;100.00;101340.41;4968227;28;20054;-76
2023/08/19 02:02:10;;;;;;;19.52;17.02;;;;;;;20.59;100.00;101343.09;4931504;28;20413;-77
2023/08/19 02:04:38;;;;;;;18.55;16.67;;;;;;;20.56;100.00;101335.16;4970148;28;20058;-76
2023/08/19 02:07:05;;;;;;;20.35;18.20;;;;;;;20.54;100.00;101343.22;4983479;28;20417;-77
2023/08/19 02:09:33;;;;;;;19.85;17.73;;;;;;;20.53;100.00;101344.16;4969820;28;20063;-77
2023/08/19 02:12:00;;;;;;;20.13;18.00;;;;;;;20.52;100.00;101344.19;4967113;28;20046;-75
2023/08/19 02:14:27;;;;;;;19.95;17.83;;;;;;;20.50;100.00;101344.25;4970484;28;20488;-75
2023/08/19 02:16:55;;;;;;;23.35;19.45;;;;;;;20.48;100.00;101347.91;4924282;28;20038;-76
2023/08/19 02:19:25;;;;;;;20.13;18.00;;;;;;;20.47;100.00;101341.66;4969086;28;20424;-76
2023/08/19 02:21:52;;;;;;;21.05;18.55;;;;;;;20.46;100.00;101342.59;4968044;28;20652;-77
2023/08/19 02:24:19;;;;;;;22.00;19.17;;;;;;;20.44;100.00;101339.94;4969330;28;20047;-77
2023/08/19 02:26:47;;;;;;;21.38;19.08;;;;;;;20.44;100.00;101344.44;4969740;28;20496;-77
2023/08/19 02:29:14;;;;;;;25.35;18.55;;;;;;;20.43;100.00;101337.31;4968193;28;20065;-76
2023/08/19 02:31:42;;;;;;;21.25;19.05;;;;;;;20.41;100.00;101337.34;4969319;28;20047;-76
2023/08/19 02:34:10;;;;;;;20.27;17.75;;;;;;;20.40;100.00;101332.06;4915326;28;20073;-76
2023/08/19 02:36:38;;;;;;;20.15;18.08;;;;;;;20.39;100.00;101335.66;4953427;28;20062;-76
2023/08/19 02:39:06;;;;;;;19.65;17.65;;;;;;;20.37;100.00;101333.03;4967838;28;20058;-76
2023/08/19 02:41:33;;;;;;;20.30;18.20;;;;;;;20.36;100.00;101333.06;4969320;28;20046;-76
2023/08/19 02:44:00;;;;;;;21.02;18.83;;;;;;;20.34;100.00;101333.13;4967114;28;20101;-76
2023/08/19 02:46:28;;;;;;;20.08;18.13;;;;;;;20.34;100.00;101326.88;4970554;28;20057;-77
2023/08/19 02:48:56;;;;;;;20.92;18.83;;;;;;;20.33;100.00;101322.47;4958347;28;20046;-76
2023/08/19 02:51:23;;;;;;;20.88;18.38;;;;;;;20.32;100.00;101326.94;4971720;28;20042;-76
2023/08/19 02:53:51;;;;;;;20.30;18.05;;;;;;;20.32;100.00;101331.41;4970558;28;20043;-77
2023/08/19 02:56:18;;;;;;;21.25;19.08;;;;;;;20.30;100.00;101326.09;4968656;28;20051;-76
2023/08/19 02:58:46;;;;;;;21.02;18.95;;;;;;;20.29;100.00;101321.69;4949657;29;20055;-76
2023/08/19 03:01:13;;;;;;;20.67;18.45;;;;;;;20.29;100.00;101321.69;4982954;28;20045;-76
2023/08/19 03:03:41;;;;;;;22.02;18.63;;;;;;;20.29;100.00;101326.16;4942348;28;20054;-76
2023/08/19 03:06:08;;;;;;;22.55;20.13;;;;;;;20.28;100.00;101319.03;4966409;28;20054;-77
2023/08/19 03:08:36;;;;;;;20.95;18.75;;;;;;;20.28;100.00;101308.34;4968790;28;20054;-76
2023/08/19 03:11:03;;;;;;;21.10;18.67;;;;;;;20.27;100.00;101303.94;4966829;28;20058;-77
2023/08/19 03:13:31;;;;;;;21.77;19.33;;;;;;;20.26;100.00;101305.69;4969646;28;20058;-77
2023/08/19 03:16:00;;;;;;;20.77;18.75;;;;;;;20.26;100.00;101305.69;4966214;28;20459;-77
2023/08/19 03:18:27;;;;;;;22.80;18.42;;;;;;;20.24;100.00;101300.44;4929964;28;20049;-76
2023/08/19 03:20:58;;;;;;;22.52;18.98;;;;;;;20.24;100.00;101295.06;4968570;28;20062;-76
2023/08/19 03:23:27;;;;;;;21.70;19.23;;;;;;;20.24;100.00;101292.41;4971770;28;20070;-76
2023/08/19 03:25:56;;;;;;;22.05;19.92;;;;;;;20.23;100.00;101293.31;4970089;28;20050;-76
2023/08/19 03:28:23;;;;;;;20.55;18.38;;;;;;;20.23;100.00;101289.75;4952231;28;20063;-76
2023/08/19 03:30:51;;;;;;;21.50;17.33;;;;;;;20.21;100.00;101287.13;4971124;28;20053;-77
2023/08/19 03:33:20;;;;;;;20.13;18.10;;;;;;;20.23;100.00;101289.75;4969634;28;20064;-77
2023/08/19 03:35:47;;;;;;;22.17;19.83;;;;;;;20.21;100.00;101284.44;4965984;28;20053;-76
2023/08/19 03:38:17;;;;;;;21.92;18.83;;;;;;;20.20;100.00;101288.03;4967274;28;20552;-77
2023/08/19 03:40:44;;;;;;;21.92;18.98;;;;;;;20.19;100.00;101275.59;4971988;28;20057;-77
2023/08/19 03:43:12;;;;;;;23.98;20.15;;;;;;;20.19;100.00;101288.97;4979558;28;20054;-76
2023/08/19 03:45:39;;;;;;;24.15;18.88;;;;;;;20.20;100.00;101289.84;4971078;28;20061;-76
2023/08/19 03:48:06;;;;;;;20.45;17.60;;;;;;;20.18;100.00;101291.69;4967927;28;20081;-76
2023/08/19 03:50:35;;;;;;;19.98;17.80;;;;;;;20.17;100.00;101285.47;4933656;28;20487;-76
2023/08/19 03:53:03;;;;;;;21.65;19.35;;;;;;;20.16;100.00;101289.06;4969355;28;20090;-76
2023/08/19 03:55:30;;;;;;;20.10;17.95;;;;;;;20.16;100.00;101291.72;4971477;28;20081;-77
2023/08/19 03:57:58;;;;;;;22.10;17.63;;;;;;;20.16;100.00;101283.69;4968939;28;20053;-77
2023/08/19 04:00:26;;;;;;;21.63;19.33;;;;;;;20.15;100.00;101286.41;4969580;28;20384;-76
2023/08/19 04:02:53;;;;;;;20.45;18.45;;;;;;;20.14;100.00;101285.56;4969166;28;20043;-76
2023/08/19 04:05:21;;;;;;;21.92;19.08;;;;;;;20.15;100.00;101267.69;4970450;28;20081;-76
2023/08/19 04:07:49;;;;;;;19.70;17.63;;;;;;;20.15;100.00;101265.00;4934190;28;20043;-77
2023/08/19 04:10:17;;;;;;;20.27;17.83;;;;;;;20.15;100.00;101276.63;4968824;28;20074;-77
2023/08/19 04:12:44;;;;;;;25.05;17.80;;;;;;;20.15;100.00;101271.25;4970278;28;20049;-77
2023/08/19 04:15:12;;;;;;;20.58;17.77;;;;;;;20.15;100.00;101273.03;4967936;28;20046;-77
2023/08/19 04:17:40;;;;;;;20.02;17.70;;;;;;;20.15;100.00;101275.72;4970609;28;20046;-77
2023/08/19 04:20:09;;;;;;;18.58;16.67;;;;;;;20.15;100.00;101276.63;4964669;28;20039;-77
2023/08/19 04:22:40;;;;;;;20.48;17.83;;;;;;;20.17;100.00;101276.53;4945444;28;20050;-77
2023/08/19 04:25:08;;;;;;;18.88;16.90;;;;;;;20.17;100.00;101276.53;4969337;28;20042;-77
2023/08/19 04:27:35;;;;;;;19.88;16.75;;;;;;;20.17;100.00;101274.75;4988845;28;20050;-77
2023/08/19 04:30:05;;;;;;;22.52;18.15;;;;;;;20.17;100.00;101269.41;4969362;28;20042;-77
2023/08/19 04:32:33;;;;;;;24.52;18.13;;;;;;;20.20;100.00;101277.34;4970893;28;20078;-76
2023/08/19 04:35:01;;;;;;;21.08;18.35;;;;;;;20.23;100.00;101279.06;4968618;28;20043;-77
2023/08/19 04:37:28;;;;;;;19.40;17.48;;;;;;;20.24;100.00;101270.09;4935517;28;20058;-76
2023/08/19 04:39:56;;;;;;;19.50;17.42;;;;;;;20.27;100.00;101282.53;4970192;28;20075;-77
2023/08/19 04:42:33;;;;;;;19.77;17.35;;;;;;;20.29;100.00;101286.03;4975307;28;20061;-76
2023/08/19 04:45:02;;;;;;;20.67;17.98;;;;;;;20.30;100.00;101282.41;4968788;28;20046;-76
2023/08/19 04:47:33;;;;;;;20.08;17.90;;;;;;;20.32;100.00;101275.22;5004838;28;20065;-77
2023/08/19 04:50:07;;;;;;;19.70;17.70;;;;;;;20.33;100.00;101274.28;4969518;28;20628;-76
2023/08/19 04:52:37;;;;;;;22.15;17.75;;;;;;;20.34;100.00;101276.94;4933429;28;20046;-76
2023/08/19 04:55:08;;;;;;;18.38;15.52;;;;;;;20.39;100.00;101277.66;4970396;28;20050;-77
2023/08/19 04:57:36;;;;;;;19.40;16.65;;;;;;;20.43;100.00;101275.75;4956133;28;20133;-77
2023/08/19 05:00:05;;;;;;;18.10;16.20;;;;;;;20.45;100.00;101271.22;4969662;28;20054;-76
2023/08/19 05:02:35;;;;;;;22.65;16.48;;;;;;;20.49;100.00;101270.22;4987044;28;20058;-77
2023/08/19 05:05:03;;;;;;;18.20;16.50;;;;;;;20.55;100.00;101279.88;4967860;28;20084;-76
2023/08/19 05:07:30;;;;;;;18.05;16.20;;;;;;;20.59;100.00;101278.84;4986165;28;20046;-76
2023/08/19 05:09:58;;;;;;;16.83;15.02;;;;;;;20.62;100.00;101290.38;4945968;28;20415;-76
2023/08/19 05:12:27;;;;;;;17.17;15.32;;;;;;;20.67;100.00;101283.97;4987233;28;20057;-76
2023/08/19 05:14:55;;;;;;;17.98;14.90;;;;;;;20.70;100.00;101287.44;4970252;28;20054;-76
2023/08/19 05:17:22;;;;;;;16.38;14.68;;;;;;;20.74;100.00;101294.44;4970796;28;20042;-76
2023/08/19 05:19:50;;;;;;;18.13;15.18;;;;;;;20.77;100.00;101280.06;4970053;28;20058;-76
2023/08/19 05:22:17;;;;;;;24.45;21.35;;;;;;;20.81;100.00;101285.28;4985385;28;20574;-76
2023/08/19 05:24:45;;;;;;;18.60;16.60;;;;;;;20.86;100.00;101282.44;4930110;28;20042;-76
2023/08/19 05:27:12;;;;;;;22.75;15.27;;;;;;;20.90;100.00;101277.88;5001132;28;20046;-75
2023/08/19 05:29:39;;;;;;;20.77;15.63;;;;;;;20.94;100.00;101272.34;4970608;28;20050;-76
2023/08/19 05:32:07;;;;;;;17.05;14.45;;;;;;;20.97;100.00;101266.91;4952465;28;20047;-75
2023/08/19 05:34:34;;;;;;;17.02;14.30;;;;;;;21.02;100.00;101274.81;4970853;28;20050;-77
2023/08/19 05:37:04;;;;;;;15.30;13.73;;;;;;;21.09;100.00;101275.47;4967184;28;20058;-76
2023/08/19 05:39:32;;;;;;;22.58;14.30;;;;;;;21.14;100.00;101286.91;4948289;28;20042;-76
2023/08/19 05:41:59;;;;;;;15.32;13.77;;;;;;;21.20;100.00;101294.72;4952139;28;20073;-76
2023/08/19 05:44:27;;;;;;;18.08;13.38;;;;;;;21.26;100.00;101282.91;4971404;28;20046;-76
2023/08/19 05:46:54;;;;;;;15.40;12.40;;;;;;;21.31;100.00;101289.88;4988252;28;20614;-76
2023/08/19 05:49:21;;;;;;;13.60;12.20;;;;;;;21.36;100.00;101287.91;4974618;28;20042;-76
2023/08/19 05:51:48;;;;;;;19.27;12.05;;;;;;;21.42;100.00;101276.97;4983980;28;20491;-77
2023/08/19 05:54:16;;;;;;;13.35;12.05;;;;;;;21.51;100.00;101272.25;4972108;28;20772;-76
2023/08/19 05:56:43;;;;;;;13.73;11.95;;;;;;;21.60;100.00;101278.13;4936967;28;20065;-76
2023/08/19 05:59:10;;;;;;;13.13;11.73;;;;;;;21.67;100.00;101278.81;4969944;28;20408;-77
2023/08/19 06:01:39;;;;;;;11.93;10.82;;;;;;;21.76;100.00;101273.13;4973974;28;20065;-77
2023/08/19 06:04:06;;;;;;;12.05;10.93;;;;;;;21.85;100.00;101271.00;4988955;28;20555;-76
2023/08/19 06:06:33;;;;;;;14.90;10.57;;;;;;;21.94;100.00;101268.00;4973603;28;20065;-78
2023/08/19 06:09:01;;;;;;;14.93;10.98;;;;;;;22.01;100.00;101272.19;4969655;28;20408;-76
2023/08/19 06:11:28;;;;;;;14.80;11.38;;;;;;;22.08;100.00;101280.88;4956267;28;20487;-76
2023/08/19 06:13:56;;;;;;;13.75;12.32;;;;;;;22.12;100.00;101275.34;4981558;28;20054;-77
2023/08/19 06:16:23;;;;;;;14.60;12.35;;;;;;;22.15;100.00;101272.53;4973273;28;20042;-77
2023/08/19 06:18:50;;;;;;;15.02;13.18;;;;;;;22.21;100.00;101276.78;4972275;28;20047;-77
2023/08/19 06:21:18;;;;;;;13.80;12.25;;;;;;;22.28;100.00;101274.78;4972554;28;20062;-76
2023/08/19 06:23:45;;;;;;;15.45;13.77;;;;;;;22.33;100.00;101278.19;4990556;28;20042;-77
2023/08/19 06:26:12;;;;;;;15.75;12.30;;;;;;;22.40;100.00;101268.94;4932915;28;20051;-77
2023/08/19 06:28:40;;;;;;;14.23;12.00;;;;;;;22.50;100.00;101264.94;4990086;28;20050;-77
2023/08/19 06:31:09;;;;;;;12.57;11.27;;;;;;;22.64;100.00;101276.94;4969221;28;20424;-76
2023/08/19 06:33:37;;;;;;;12.43;11.23;;;;;;;22.73;100.00;101269.38;4974171;28;20061;-76
2023/08/19 06:36:06;;;;;;;13.00;11.73;;;;;;;22.78;100.00;101270.06;4969645;28;20046;-75
2023/08/19 06:38:34;;;;;;;15.77;11.45;;;;;;;22.80;100.00;101271.81;4987739;28;20046;-76
2023/08/19 06:41:07;;;;;;;14.02;11.40;;;;;;;22.81;100.00;101269.06;4932362;28;20050;-76
2023/08/19 06:43:37;;;;;;;12.48;11.32;;;;;;;22.80;100.00;101275.41;4975389;28;20046;-76
2023/08/19 06:46:06;;;;;;;13.35;11.82;;;;;;;22.80;100.00;101278.06;4969776;28;20059;-76
2023/08/19 06:48:35;;;;;;;13.57;11.82;;;;;;;22.77;100.00;101283.56;4990114;28;20042;-76
2023/08/19 06:51:03;;;;;;;12.23;11.02;;;;;;;22.76;100.00;101284.53;4970028;28;20051;-76
2023/08/19 06:53:31;;;;;;;15.00;11.07;;;;;;;22.77;100.00;101297.00;4973416;28;20439;-76
2023/08/19 06:56:14;;;;;;;12.70;10.75;;;;;;;22.78;100.00;101302.31;4968893;28;20431;-76
2023/08/19 06:58:48;;;;;;;12.23;11.13;;;;;;;22.79;100.00;101297.81;4932585;28;20057;-76
2023/08/19 07:01:24;;;;;;;11.60;10.48;;;;;;;22.79;100.00;101303.19;4970402;28;20093;-76
2023/08/19 07:03:52;;;;;;;10.30;9.40;;;;;;;22.78;100.00;101304.13;4970521;28;20050;-76
2023/08/19 07:06:22;;;;;;;11.10;10.10;;;;;;;22.77;100.00;101302.38;4973783;28;20061;-76
2023/08/19 07:08:50;;;;;;;16.25;13.23;;;;;;;22.74;100.00;101302.50;4971102;28;20061;-76
2023/08/19 07:11:19;;;;;;;12.60;11.20;;;;;;;22.70;100.00;101300.88;4971413;28;20061;-76
2023/08/19 07:13:47;;;;;;;13.10;11.00;;;;;;;22.67;100.00;101295.63;4949816;28;20042;-76
2023/08/19 07:16:17;;;;;;;16.02;10.50;;;;;;;22.62;100.00;101294.94;4954402;28;20412;-77
2023/08/19 07:18:47;;;;;;;11.75;10.60;;;;;;;22.58;100.00;101295.03;4973865;28;20061;-76
2023/08/19 07:21:16;;;;;;;13.45;10.57;;;;;;;22.55;100.00;101292.50;4970565;28;20556;-77
2023/08/19 07:23:46;;;;;;;11.32;9.98;;;;;;;22.52;100.00;101289.06;4973733;28;20054;-77
2023/08/19 07:26:14;;;;;;;11.23;10.13;;;;;;;22.49;100.00;101276.63;4987668;28;20081;-77
2023/08/19 07:28:42;;;;;;;11.40;10.35;;;;;;;22.47;100.00;101280.31;4926439;28;20054;-77
2023/08/19 07:31:11;;;;;;;11.90;10.70;;;;;;;22.45;100.00;101282.19;4988084;28;21158;-76
2023/08/19 07:33:38;;;;;;;11.77;10.13;;;;;;;22.46;100.00;101287.50;4990435;28;20042;-77
2023/08/19 07:36:06;;;;;;;14.45;10.05;;;;;;;22.46;100.00;101289.31;4969253;28;20054;-76
2023/08/19 07:38:33;;;;;;;15.95;10.88;;;;;;;22.45;100.00;101300.97;4989240;28;20488;-76
2023/08/19 07:41:00;;;;;;;11.75;10.65;;;;;;;22.45;100.00;101299.16;4968884;28;20061;-76
2023/08/19 07:43:28;;;;;;;12.27;10.25;;;;;;;22.46;100.00;101289.31;4971805;28;20054;-76
2023/08/19 07:45:55;;;;;;;12.10;10.70;;;;;;;22.47;100.00;101288.34;4942743;28;20042;-76
2023/08/19 07:48:23;;;;;;;12.68;10.52;;;;;;;22.49;100.00;101300.78;4970558;28;20058;-77
2023/08/19 07:50:50;;;;;;;13.90;10.10;;;;;;;22.51;100.00;101304.31;4971090;28;20496;-77
2023/08/19 07:53:17;;;;;;;11.50;10.18;;;;;;;22.54;100.00;101306.84;4972382;28;20436;-77
2023/08/19 07:55:47;;;;;;;11.85;9.95;;;;;;;22.58;100.00;101316.53;4972778;28;20054;-77
2023/08/19 07:58:15;;;;;;;10.70;9.60;;;;;;;22.61;100.00;101314.66;4970141;28;20051;-77
2023/08/19 08:00:42;;;;;;;10.40;9.23;;;;;;;22.64;100.00;101326.16;4934042;28;20047;-77
2023/08/19 08:03:11;;;;;;;11.30;8.52;;;;;;;22.68;100.00;101308.97;4954870;28;20053;-77
2023/08/19 08:05:39;;;;;;;9.73;8.82;;;;;;;22.73;100.00;101322.25;4958623;28;20065;-77
2023/08/19 08:08:07;;;;;;;9.70;8.18;;;;;;;22.78;100.00;101320.25;4970964;28;20054;-76
2023/08/19 08:10:34;;;;;;;16.13;8.95;;;;;;;22.82;100.00;101326.38;5003868;28;20538;-76
2023/08/19 08:13:02;;;;;;;9.13;8.20;;;;;;;22.86;100.00;101322.63;4969770;28;20054;-76
2023/08/19 08:15:30;;;;;;;8.90;8.00;;;;;;;22.90;100.00;101322.44;4942196;28;20045;-76
2023/08/19 08:17:57;;;;;;;10.45;8.15;;;;;;;22.95;100.00;101325.81;5008188;28;20081;-77
2023/08/19 08:20:25;;;;;;;12.45;8.43;;;;;;;23.01;100.00;101323.81;4968572;28;20053;-76
2023/08/19 08:22:52;;;;;;;10.48;8.48;;;;;;;23.06;100.00;101327.19;4967578;28;20554;-76
2023/08/19 08:25:19;;;;;;;13.45;8.77;;;;;;;23.10;100.00;101324.34;4968138;28;20053;-76
2023/08/19 08:27:47;;;;;;;10.98;8.70;;;;;;;23.17;100.00;101330.31;5014381;28;20047;-75
2023/08/19 08:30:14;;;;;;;9.18;7.93;;;;;;;23.22;100.00;101320.25;4968285;28;20049;-77
2023/08/19 08:32:42;;;;;;;10.52;8.45;;;;;;;23.27;100.00;101329.00;4949943;28;20440;-75
2023/08/19 08:35:09;;;;;;;10.25;8.32;;;;;;;23.31;100.00;101327.94;4967304;28;20468;-77
2023/08/19 08:37:36;;;;;;;12.27;9.63;;;;;;;23.34;100.00;101319.72;4968824;28;20051;-76
2023/08/19 08:40:04;;;;;;;10.57;7.53;;;;;;;23.40;100.00;101317.72;4997352;28;20047;-76
2023/08/19 08:42:32;;;;;;;9.70;7.85;;;;;;;23.45;100.00;101313.88;4999944;28;20051;-76
2023/08/19 08:45:02;;;;;;;8.85;7.63;;;;;;;23.51;100.00;101319.00;4988743;28;20051;-77
2023/08/19 08:47:30;;;;;;;12.13;6.85;;;;;;;23.59;100.00;101318.69;4933399;28;20046;-77
2023/08/19 08:49:59;;;;;;;7.60;6.93;;;;;;;23.63;100.00;101316.72;4982335;28;20047;-77
2023/08/19 08:52:27;;;;;;;9.40;7.40;;;;;;;23.68;100.00;101328.16;4999820;28;20054;-77
2023/08/19 08:54:57;;;;;;;7.65;6.80;;;;;;;23.72;100.00;101327.06;4950210;28;20055;-76
2023/08/19 08:57:24;;;;;;;9.13;6.80;;;;;;;23.72;100.00;101322.59;4968278;28;20055;-77
2023/08/19 08:59:54;;;;;;;8.48;6.40;;;;;;;23.75;100.00;101322.44;4967916;28;20503;-77
2023/08/19 09:02:24;;;;;;;7.83;6.40;;;;;;;23.78;100.00;101323.22;4934059;28;22839;-76
2023/08/19 09:04:51;;;;;;;9.48;6.22;;;;;;;23.81;100.00;101320.44;4983684;28;20050;-76
2023/08/19 09:07:28;;;;;;;7.32;5.57;;;;;;;23.86;100.00;101313.91;4966013;28;20179;-78
2023/08/19 09:09:59;;;;;;;7.45;5.63;;;;;;;23.90;100.00;101315.53;4971458;28;20047;-77
2023/08/19 09:12:31;;;;;;;7.43;6.30;;;;;;;23.96;100.00;101324.28;4967539;28;20053;-76
2023/08/19 09:15:03;;;;;;;12.88;6.35;;;;;;;24.04;100.00;101317.56;4965978;28;20055;-76
2023/08/19 09:17:32;;;;;;;8.75;6.80;;;;;;;24.12;100.00;101312.72;4937910;28;20050;-76
2023/08/19 09:20:00;;;;;;;6.28;5.72;;;;;;;24.26;100.00;101300.44;4977330;28;20393;-76
2023/08/19 09:22:27;;;;;;;6.47;5.82;;;;;;;24.43;100.00;101313.97;4971535;28;20050;-76
2023/08/19 09:24:56;;;;;;;7.15;6.43;;;;;;;24.64;100.00;101308.53;4971054;28;20050;-77
2023/08/19 09:27:28;;;;;;;6.28;5.63;;;;;;;24.80;100.00;101305.97;4970907;28;20495;-77
2023/08/19 09:29:57;;;;;;;6.75;5.10;;;;;;;24.96;100.00;101300.69;4978257;28;20684;-76
2023/08/19 09:32:32;;;;;;;6.30;5.28;;;;;;;25.14;100.00;101299.78;4992365;28;20418;-77
2023/08/19 09:35:11;;;;;;;7.93;4.80;;;;;;;25.32;100.00;101305.22;4945757;28;20055;-77
2023/08/19 09:37:40;;;;;;;5.07;4.68;;;;;;;25.48;100.00;101303.44;4971251;28;20050;-76
2023/08/19 09:40:18;;;;;;;5.07;4.50;;;;;;;25.67;100.00;101320.44;4951654;28;20052;-76
2023/08/19 09:42:50;;;;;;;5.55;4.70;;;;;;;25.85;100.00;101317.72;4971318;28;20062;-77
2023/08/19 09:45:19;;;;;;;8.65;5.38;;;;;;;26.01;100.00;101328.56;4969207;28;20445;-76
2023/08/19 09:47:51;;;;;;;7.95;4.80;;;;;;;26.14;100.00;101326.09;4971448;28;20143;-77
2023/08/19 09:50:22;;;;;;;6.60;4.93;;;;;;;26.24;100.00;101327.34;4925331;28;20046;-76
2023/08/19 09:52:55;;;;;;;8.20;5.25;;;;;;;26.29;100.00;101341.44;4987582;28;20046;-76
2023/08/19 09:55:30;;;;;;;5.88;4.95;;;;;;;26.32;100.00;101343.13;4950876;28;20519;-76
2023/08/19 09:57:58;;;;;;;5.53;5.10;;;;;;;26.33;100.00;101339.44;4968935;28;20042;-76
2023/08/19 10:00:26;;;;;;;9.05;5.70;;;;;;;26.33;100.00;101345.72;4987705;28;20070;-77
2023/08/19 10:02:54;;;;;;;7.63;5.25;;;;;;;26.37;100.00;101331.09;4988345;28;20043;-76
2023/08/19 10:05:26;;;;;;;6.20;5.55;;;;;;;26.39;100.00;101328.28;4938389;28;21566;-77
2023/08/19 10:08:01;;;;;;;7.00;5.63;;;;;;;26.40;100.00;101325.50;4981551;28;20055;-76
2023/08/19 10:10:31;;;;;;;9.32;4.82;;;;;;;26.45;100.00;101334.25;4968921;28;20051;-77
2023/08/19 10:13:00;;;;;;;;;;;;;;;26.47;100.00;101339.56;4970719;28;20051;-76
2023/08/19 10:15:31;;;;;;;8.32;5.47;;;;;;;26.49;100.00;101340.34;4971786;28;19922;-76
2023/08/19 10:18:03;;;;;;;6.95;5.60;;;;;;;26.52;100.00;101336.59;4972910;28;20054;-77
2023/08/19 10:20:33;;;;;;;7.18;5.82;;;;;;;26.55;100.00;101334.59;4991755;28;20054;-77
2023/08/19 10:23:05;;;;;;;9.35;5.82;;;;;;;26.58;100.00;101338.97;4939859;28;20091;-77
2023/08/19 10:25:33;;;;;;;6.18;5.53;;;;;;;26.63;100.00;101339.59;4991888;28;20427;-77
2023/08/19 10:28:21;;;;;;;10.18;5.85;;;;;;;26.73;100.00;101332.72;4961272;28;20046;-77
2023/08/19 10:31:13;;;;;;;8.25;5.85;;;;;;;26.83;100.00;101335.78;4972933;28;20058;-77
2023/08/19 10:33:43;;;;;;;8.95;5.35;;;;;;;26.88;100.00;101339.09;4992551;28;20050;-76
2023/08/19 10:36:16;;;;;;;7.07;5.32;;;;;;;26.87;100.00;101328.34;4972574;28;20456;-76
2023/08/19 10:38:56;;;;;;;7.32;6.18;;;;;;;26.86;100.00;101342.81;4936910;28;20050;-76
2023/08/19 10:41:41;;;;;;;9.18;6.03;;;;;;;26.81;100.00;101354.78;4992197;28;20065;-77
2023/08/19 10:44:12;;;;;;;7.03;6.32;;;;;;;26.75;100.00;101374.06;4972010;28;20047;-76
2023/08/19 10:46:47;;;;;;;10.15;7.00;;;;;;;26.65;100.00;101383.63;4992763;28;20057;-75
2023/08/19 10:49:18;;;;;;;10.70;7.20;;;;;;;26.52;100.00;101382.53;4972519;28;20050;-76
2023/08/19 10:51:51;;;;;;;10.57;7.05;;;;;;;26.40;100.00;101381.38;4974642;28;20535;-77
2023/08/19 10:54:31;;;;;;;6.90;6.18;;;;;;;26.25;100.00;101380.41;4935546;28;20058;-76
2023/08/19 10:57:28;;;;;;;7.65;6.85;;;;;;;26.07;100.00;101376.88;4959205;28;20519;-77
2023/08/19 10:59:58;;;;;;;11.40;7.68;;;;;;;25.92;100.00;101367.75;4988474;28;20055;-76
2023/08/19 11:02:27;;;;;;;10.18;7.47;;;;;;;25.78;100.00;101356.78;4973392;28;20058;-77
2023/08/19 11:04:57;;;;;;;10.10;7.05;;;;;;;25.66;100.00;101340.25;4970675;28;20440;-77
2023/08/19 11:07:25;;;;;;;8.70;7.47;;;;;;;25.58;100.00;101331.72;4959399;28;20050;-76
2023/08/19 11:09:56;;;;;;;7.63;6.88;;;;;;;25.48;100.00;101330.44;4956816;28;20046;-77
2023/08/19 11:12:26;;;;;;;9.05;7.32;;;;;;;25.45;100.00;101309.88;4974006;28;20052;-76
2023/08/19 11:14:59;;;;;;;12.27;7.90;;;;;;;25.58;100.00;101310.13;4988596;28;20050;-76
2023/08/19 11:17:28;;;;;;;10.95;8.02;;;;;;;25.78;100.00;101333.34;4972227;28;20061;-75